Terminal Aerodrome Forecast
Issued by NWS Sterling, VA

Current Version | Previous Version | Graphics & Text | Print | Product List | Glossary On
Versions: 1 2 3 4 5 6 7 8 9 10 11 12 13 14 15 16
000
FTUS41 KLWX 101728
TAFMRB
TAF
KMRB 101728Z 1018/1118 28016G23KT P6SM BKN045
     FM110200 28010G18KT P6SM BKN050
     FM110600 28012G19KT P6SM SCT250
     FM110900 28012G19KT P6SM SCT050=

USA.gov is the U.S. government's official web portal to all federal, state and local government web resources and services.